sensor_id;sensor_type;location;lat;lon;timestamp;pressure;altitude;pressure_sealevel;temperature;humidity
77867;BME280;67271;59.120;37.970;2023-03-01T00:05:12;98968.19;;;-6.70;72.54
77867;BME280;67271;59.120;37.970;2023-03-01T00:07:38;98968.19;;;-6.70;72.80
77867;BME280;67271;59.120;37.970;2023-03-01T00:10:04;98976.19;;;-6.71;73.07
77867;BME280;67271;59.120;37.970;2023-03-01T00:12:31;98966.75;;;-6.74;73.47
77867;BME280;67271;59.120;37.970;2023-03-01T00:14:57;98977.25;;;-6.74;73.89
77867;BME280;67271;59.120;37.970;2023-03-01T00:17:22;98968.91;;;-6.79;73.53
77867;BME280;67271;59.120;37.970;2023-03-01T00:19:48;98969.13;;;-6.82;73.38
77867;BME280;67271;59.120;37.970;2023-03-01T00:22:14;98965.38;;;-6.90;74.02
77867;BME280;67271;59.120;37.970;2023-03-01T00:24:40;98967.53;;;-6.95;73.57
77867;BME280;67271;59.120;37.970;2023-03-01T00:27:05;98965.47;;;-7.03;74.67
77867;BME280;67271;59.120;37.970;2023-03-01T00:29:31;98974.56;;;-7.07;74.33
77867;BME280;67271;59.120;37.970;2023-03-01T00:31:57;98963.53;;;-7.12;74.79
77867;BME280;67271;59.120;37.970;2023-03-01T00:34:23;98978.59;;;-7.14;74.91
77867;BME280;67271;59.120;37.970;2023-03-01T00:36:48;98971.66;;;-7.15;74.23
77867;BME280;67271;59.120;37.970;2023-03-01T00:39:15;98978.59;;;-7.14;74.79
77867;BME280;67271;59.120;37.970;2023-03-01T00:41:41;98981.34;;;-7.16;74.56
77867;BME280;67271;59.120;37.970;2023-03-01T00:44:07;98985.97;;;-7.19;74.04
77867;BME280;67271;59.120;37.970;2023-03-01T00:46:35;98987.88;;;-7.21;74.48
77867;BME280;67271;59.120;37.970;2023-03-01T00:49:00;98985.50;;;-7.24;74.47
77867;BME280;67271;59.120;37.970;2023-03-01T00:51:28;98986.91;;;-7.20;74.55
77867;BME280;67271;59.120;37.970;2023-03-01T00:53:58;98984.53;;;-7.23;75.02
77867;BME280;67271;59.120;37.970;2023-03-01T00:56:25;98985.38;;;-7.23;74.74
77867;BME280;67271;59.120;37.970;2023-03-01T00:58:51;98982.03;;;-7.25;74.35
77867;BME280;67271;59.120;37.970;2023-03-01T01:01:22;98986.78;;;-7.30;74.36
77867;BME280;67271;59.120;37.970;2023-03-01T01:03:59;98987.84;;;-7.32;74.81
77867;BME280;67271;59.120;37.970;2023-03-01T01:06:29;98988.06;;;-7.35;74.49
77867;BME280;67271;59.120;37.970;2023-03-01T01:08:56;98979.34;;;-7.36;74.86
77867;BME280;67271;59.120;37.970;2023-03-01T01:11:23;98983.25;;;-7.42;74.83
77867;BME280;67271;59.120;37.970;2023-03-01T01:13:50;98991.13;;;-7.42;74.98
77867;BME280;67271;59.120;37.970;2023-03-01T01:16:17;98990.66;;;-7.47;75.30
77867;BME280;67271;59.120;37.970;2023-03-01T01:18:45;98980.25;;;-7.48;75.01
77867;BME280;67271;59.120;37.970;2023-03-01T01:21:15;98986.22;;;-7.46;75.33
77867;BME280;67271;59.120;37.970;2023-03-01T01:23:41;98984.56;;;-7.47;74.90
77867;BME280;67271;59.120;37.970;2023-03-01T01:26:10;98990.38;;;-7.55;75.17
77867;BME280;67271;59.120;37.970;2023-03-01T01:28:37;98989.03;;;-7.60;75.33
77867;BME280;67271;59.120;37.970;2023-03-01T01:31:03;98980.31;;;-7.61;75.79
77867;BME280;67271;59.120;37.970;2023-03-01T01:33:30;98992.69;;;-7.63;75.32
77867;BME280;67271;59.120;37.970;2023-03-01T01:35:55;98986.00;;;-7.67;74.85
77867;BME280;67271;59.120;37.970;2023-03-01T01:38:21;98990.41;;;-7.67;75.18
77867;BME280;67271;59.120;37.970;2023-03-01T01:40:49;98984.09;;;-7.65;75.21
77867;BME280;67271;59.120;37.970;2023-03-01T01:43:39;98992.91;;;-7.66;75.02
77867;BME280;67271;59.120;37.970;2023-03-01T01:49:06;98988.88;;;-7.59;74.87
77867;BME280;67271;59.120;37.970;2023-03-01T01:51:39;98993.19;;;-7.58;75.25
77867;BME280;67271;59.120;37.970;2023-03-01T01:54:10;98991.88;;;-7.63;75.38
77867;BME280;67271;59.120;37.970;2023-03-01T01:56:40;98993.88;;;-7.67;75.25
77867;BME280;67271;59.120;37.970;2023-03-01T01:59:08;99000.94;;;-7.67;75.22
77867;BME280;67271;59.120;37.970;2023-03-01T02:01:34;99002.91;;;-7.71;75.64
77867;BME280;67271;59.120;37.970;2023-03-01T02:04:00;99004.22;;;-7.76;75.17
77867;BME280;67271;59.120;37.970;2023-03-01T02:06:43;99007.03;;;-7.79;76.02
77867;BME280;67271;59.120;37.970;2023-03-01T02:09:13;98998.66;;;-7.85;75.20
77867;BME280;67271;59.120;37.970;2023-03-01T02:11:39;99007.09;;;-7.92;76.14
77867;BME280;67271;59.120;37.970;2023-03-01T02:14:06;99003.81;;;-7.96;76.24
77867;BME280;67271;59.120;37.970;2023-03-01T02:16:32;99006.78;;;-8.00;76.21
77867;BME280;67271;59.120;37.970;2023-03-01T02:18:58;99008.16;;;-8.07;76.36
77867;BME280;67271;59.120;37.970;2023-03-01T02:21:54;99000.00;;;-8.15;76.18
77867;BME280;67271;59.120;37.970;2023-03-01T02:26:53;99014.50;;;-8.23;76.04
77867;BME280;67271;59.120;37.970;2023-03-01T02:29:21;99015.31;;;-8.22;76.50
77867;BME280;67271;59.120;37.970;2023-03-01T02:31:49;99004.09;;;-8.24;75.60
77867;BME280;67271;59.120;37.970;2023-03-01T02:34:20;99012.19;;;-8.27;75.65
77867;BME280;67271;59.120;37.970;2023-03-01T02:36:51;99011.97;;;-8.24;76.38
77867;BME280;67271;59.120;37.970;2023-03-01T02:39:25;99010.28;;;-8.25;76.41
77867;BME280;67271;59.120;37.970;2023-03-01T02:41:54;99013.75;;;-8.25;76.36
77867;BME280;67271;59.120;37.970;2023-03-01T02:44:22;99018.91;;;-8.23;75.68
77867;BME280;67271;59.120;37.970;2023-03-01T02:46:54;99014.50;;;-8.23;75.56
77867;BME280;67271;59.120;37.970;2023-03-01T02:49:29;99013.75;;;-8.25;76.28
77867;BME280;67271;59.120;37.970;2023-03-01T02:52:17;99014.50;;;-8.23;76.33
77867;BME280;67271;59.120;37.970;2023-03-01T02:57:32;99013.44;;;-8.20;75.48
77867;BME280;67271;59.120;37.970;2023-03-01T03:00:03;99016.78;;;-8.18;75.36
77867;BME280;67271;59.120;37.970;2023-03-01T03:02:34;99018.47;;;-8.17;75.28
77867;BME280;67271;59.120;37.970;2023-03-01T03:05:18;99010.81;;;-8.20;75.40
77867;BME280;67271;59.120;37.970;2023-03-01T03:07:47;99016.06;;;-8.20;76.33
77867;BME280;67271;59.120;37.970;2023-03-01T03:10:25;99022.03;;;-8.18;75.60
77867;BME280;67271;59.120;37.970;2023-03-01T03:12:54;99008.91;;;-8.18;76.27
77867;BME280;67271;59.120;37.970;2023-03-01T03:15:21;99017.84;;;-8.21;75.90
77867;BME280;67271;59.120;37.970;2023-03-01T03:17:48;99019.72;;;-8.23;76.26
77867;BME280;67271;59.120;37.970;2023-03-01T03:20:17;99019.94;;;-8.26;76.17
77867;BME280;67271;59.120;37.970;2023-03-01T03:22:48;99016.59;;;-8.28;76.37
77867;BME280;67271;59.120;37.970;2023-03-01T03:25:14;99015.63;;;-8.27;76.24
77867;BME280;67271;59.120;37.970;2023-03-01T03:27:41;99008.41;;;-8.23;75.74
77867;BME280;67271;59.120;37.970;2023-03-01T03:30:10;99013.31;;;-8.18;76.04
77867;BME280;67271;59.120;37.970;2023-03-01T03:32:38;99015.22;;;-8.21;75.94
77867;BME280;67271;59.120;37.970;2023-03-01T03:35:05;99022.25;;;-8.21;76.44
77867;BME280;67271;59.120;37.970;2023-03-01T03:37:39;99012.81;;;-8.24;76.53
77867;BME280;67271;59.120;37.970;2023-03-01T03:40:25;99013.00;;;-8.27;75.79
77867;BME280;67271;59.120;37.970;2023-03-01T03:42:51;99012.41;;;-8.30;76.34
77867;BME280;67271;59.120;37.970;2023-03-01T03:45:17;99009.16;;;-8.34;76.31
77867;BME280;67271;59.120;37.970;2023-03-01T03:47:43;99022.88;;;-8.30;76.45
77867;BME280;67271;59.120;37.970;2023-03-01T03:50:11;99017.03;;;-8.34;76.46
77867;BME280;67271;59.120;37.970;2023-03-01T03:52:37;99018.09;;;-8.36;76.32
77867;BME280;67271;59.120;37.970;2023-03-01T03:55:04;99020.19;;;-8.41;76.37
77867;BME280;67271;59.120;37.970;2023-03-01T03:57:35;99022.09;;;-8.43;76.80
77867;BME280;67271;59.120;37.970;2023-03-01T04:00:01;99022.09;;;-8.43;76.63
77867;BME280;67271;59.120;37.970;2023-03-01T04:02:39;99033.28;;;-8.41;76.18
77867;BME280;67271;59.120;37.970;2023-03-01T04:05:05;99041.16;;;-8.41;76.46
77867;BME280;67271;59.120;37.970;2023-03-01T04:07:31;99043.78;;;-8.41;76.81
77867;BME280;67271;59.120;37.970;2023-03-01T04:09:57;99035.06;;;-8.42;76.63
77867;BME280;67271;59.120;37.970;2023-03-01T04:12:22;99050.31;;;-8.47;76.53
77867;BME280;67271;59.120;37.970;2023-03-01T04:14:48;99044.84;;;-8.44;76.64
77867;BME280;67271;59.120;37.970;2023-03-01T04:17:14;99050.09;;;-8.44;77.16
77867;BME280;67271;59.120;37.970;2023-03-01T04:19:39;99049.03;;;-8.41;77.07
77867;BME280;67271;59.120;37.970;2023-03-01T04:22:05;99049.16;;;-8.43;77.21
77867;BME280;67271;59.120;37.970;2023-03-01T04:24:35;99055.34;;;-8.44;77.03
77867;BME280;67271;59.120;37.970;2023-03-01T04:27:01;99060.28;;;-8.39;76.92
77867;BME280;67271;59.120;37.970;2023-03-01T04:29:27;99070.75;;;-8.39;76.90
77867;BME280;67271;59.120;37.970;2023-03-01T04:31:53;99060.06;;;-8.36;76.60
77867;BME280;67271;59.120;37.970;2023-03-01T04:34:18;99065.22;;;-8.35;76.80
77867;BME280;67271;59.120;37.970;2023-03-01T04:36:44;99066.25;;;-8.37;76.38
77867;BME280;67271;59.120;37.970;2023-03-01T04:39:10;99062.78;;;-8.38;76.22
77867;BME280;67271;59.120;37.970;2023-03-01T04:41:39;99084.38;;;-8.34;76.83
77867;BME280;67271;59.120;37.970;2023-03-01T04:44:05;99079.16;;;-8.34;76.45
77867;BME280;67271;59.120;37.970;2023-03-01T04:46:31;99079.16;;;-8.34;76.71
77867;BME280;67271;59.120;37.970;2023-03-01T04:48:57;99081.91;;;-8.36;76.49
77867;BME280;67271;59.120;37.970;2023-03-01T04:51:23;99081.91;;;-8.36;76.37
77867;BME280;67271;59.120;37.970;2023-03-01T04:53:49;99085.22;;;-8.34;76.10
77867;BME280;67271;59.120;37.970;2023-03-01T04:56:15;99086.19;;;-8.35;76.64
77867;BME280;67271;59.120;37.970;2023-03-01T04:58:44;99084.63;;;-8.37;75.99
77867;BME280;67271;59.120;37.970;2023-03-01T05:01:12;99087.34;;;-8.39;76.14
77867;BME280;67271;59.120;37.970;2023-03-01T05:03:44;99091.84;;;-8.41;76.30
77867;BME280;67271;59.120;37.970;2023-03-01T05:06:11;99093.00;;;-8.45;76.17
77867;BME280;67271;59.120;37.970;2023-03-01T05:08:38;99097.50;;;-8.47;76.17
77867;BME280;67271;59.120;37.970;2023-03-01T05:11:04;99086.91;;;-8.45;77.01
77867;BME280;67271;59.120;37.970;2023-03-01T05:13:31;99088.50;;;-8.43;76.05
77867;BME280;67271;59.120;37.970;2023-03-01T05:15:59;99095.09;;;-8.37;76.93
77867;BME280;67271;59.120;37.970;2023-03-01T05:18:27;99093.63;;;-8.29;75.66
77867;BME280;67271;59.120;37.970;2023-03-01T05:21:03;99093.00;;;-8.19;75.96
77867;BME280;67271;59.120;37.970;2023-03-01T05:23:31;99090.03;;;-8.15;76.38
77867;BME280;67271;59.120;37.970;2023-03-01T05:25:59;99093.09;;;-8.08;75.72
77867;BME280;67271;59.120;37.970;2023-03-01T05:28:26;99090.88;;;-8.02;75.85
77867;BME280;67271;59.120;37.970;2023-03-01T05:30:52;99096.34;;;-7.92;75.74
77867;BME280;67271;59.120;37.970;2023-03-01T05:33:18;99096.41;;;-7.81;75.20
77867;BME280;67271;59.120;37.970;2023-03-01T05:35:45;99093.88;;;-7.70;75.17
77867;BME280;67271;59.120;37.970;2023-03-01T05:38:12;99086.31;;;-7.62;74.80
77867;BME280;67271;59.120;37.970;2023-03-01T05:40:45;99092.56;;;-7.52;74.77
77867;BME280;67271;59.120;37.970;2023-03-01T05:43:13;99089.28;;;-7.43;74.81
77867;BME280;67271;59.120;37.970;2023-03-01T05:45:40;99088.84;;;-7.36;74.78
77867;BME280;67271;59.120;37.970;2023-03-01T05:48:07;99094.38;;;-7.28;74.39
77867;BME280;67271;59.120;37.970;2023-03-01T05:50:35;99106.97;;;-7.21;74.93
77867;BME280;67271;59.120;37.970;2023-03-01T05:53:04;99103.69;;;-7.12;74.40
77867;BME280;67271;59.120;37.970;2023-03-01T05:55:32;99114.94;;;-6.86;74.58
77867;BME280;67271;59.120;37.970;2023-03-01T05:58:03;99111.63;;;-6.31;73.16
77867;BME280;67271;59.120;37.970;2023-03-01T06:00:30;99123.56;;;-5.92;72.18
77867;BME280;67271;59.120;37.970;2023-03-01T06:02:57;99112.78;;;-5.66;71.79
77867;BME280;67271;59.120;37.970;2023-03-01T06:05:24;99108.78;;;-5.38;70.44
77867;BME280;67271;59.120;37.970;2023-03-01T06:07:50;99112.31;;;-5.49;71.74
77867;BME280;67271;59.120;37.970;2023-03-01T06:10:17;99126.19;;;-5.58;72.03
77867;BME280;67271;59.120;37.970;2023-03-01T06:12:43;99114.22;;;-5.51;72.13
77867;BME280;67271;59.120;37.970;2023-03-01T06:15:11;99117.88;;;-5.20;70.89
77867;BME280;67271;59.120;37.970;2023-03-01T06:17:39;99124.09;;;-5.10;70.45
77867;BME280;67271;59.120;37.970;2023-03-01T06:20:11;99122.09;;;-5.29;71.41
77867;BME280;67271;59.120;37.970;2023-03-01T06:22:37;99121.88;;;-5.59;71.67
77867;BME280;67271;59.120;37.970;2023-03-01T06:25:04;99109.59;;;-5.16;71.63
77867;BME280;67271;59.120;37.970;2023-03-01T06:27:30;99117.34;;;-4.60;69.90
77867;BME280;67271;59.120;37.970;2023-03-01T06:29:56;99118.28;;;-4.08;68.74
77867;BME280;67271;59.120;37.970;2023-03-01T06:32:21;99116.97;;;-3.93;68.47
77867;BME280;67271;59.120;37.970;2023-03-01T06:34:47;99117.53;;;-3.69;68.72
77867;BME280;67271;59.120;37.970;2023-03-01T06:37:13;99115.00;;;-3.40;68.66
77867;BME280;67271;59.120;37.970;2023-03-01T06:39:39;99114.53;;;-3.05;68.22
77867;BME280;67271;59.120;37.970;2023-03-01T06:42:04;99120.09;;;-3.08;68.59
77867;BME280;67271;59.120;37.970;2023-03-01T06:44:30;99110.41;;;-2.79;68.15
77867;BME280;67271;59.120;37.970;2023-03-01T06:46:56;99126.16;;;-2.58;67.34
77867;BME280;67271;59.120;37.970;2023-03-01T06:49:22;99116.25;;;-2.46;67.57
77867;BME280;67271;59.120;37.970;2023-03-01T06:51:48;99127.44;;;-2.43;67.49
77867;BME280;67271;59.120;37.970;2023-03-01T06:54:13;99143.72;;;-2.38;67.30
77867;BME280;67271;59.120;37.970;2023-03-01T06:56:39;99139.84;;;-2.43;66.95
77867;BME280;67271;59.120;37.970;2023-03-01T06:59:05;99128.94;;;-2.40;67.30
77867;BME280;67271;59.120;37.970;2023-03-01T07:01:31;99134.53;;;-2.33;66.67
77867;BME280;67271;59.120;37.970;2023-03-01T07:03:57;99139.94;;;-2.16;66.21
77867;BME280;67271;59.120;37.970;2023-03-01T07:06:24;99142.19;;;-1.55;65.67
77867;BME280;67271;59.120;37.970;2023-03-01T07:08:50;99138.41;;;-1.15;65.45
77867;BME280;67271;59.120;37.970;2023-03-01T07:11:16;99136.31;;;-0.85;64.70
77867;BME280;67271;59.120;37.970;2023-03-01T07:13:41;99144.78;;;-0.81;64.65
77867;BME280;67271;59.120;37.970;2023-03-01T07:16:07;99138.97;;;-0.67;64.52
77867;BME280;67271;59.120;37.970;2023-03-01T07:18:33;99138.38;;;-0.43;64.33
77867;BME280;67271;59.120;37.970;2023-03-01T07:21:04;99128.19;;;-0.12;64.35
77867;BME280;67271;59.120;37.970;2023-03-01T07:23:31;99138.66;;;0.07;63.92
77867;BME280;67271;59.120;37.970;2023-03-01T07:25:57;99143.72;;;0.18;63.62
77867;BME280;67271;59.120;37.970;2023-03-01T07:28:23;99144.69;;;0.17;63.96
77867;BME280;67271;59.120;37.970;2023-03-01T07:30:49;99134.72;;;0.37;63.40
77867;BME280;67271;59.120;37.970;2023-03-01T07:33:16;99138.22;;;0.37;62.65
77867;BME280;67271;59.120;37.970;2023-03-01T07:35:42;99135.00;;;0.34;61.86
77867;BME280;67271;59.120;37.970;2023-03-01T07:38:07;99138.56;;;0.43;61.61
77867;BME280;67271;59.120;37.970;2023-03-01T07:40:33;99129.69;;;0.34;60.66
77867;BME280;67271;59.120;37.970;2023-03-01T07:42:59;99133.84;;;-0.15;60.87
77867;BME280;67271;59.120;37.970;2023-03-01T07:45:27;99131.53;;;-1.36;60.93
77867;BME280;67271;59.120;37.970;2023-03-01T07:47:54;99127.56;;;-1.59;61.55
77867;BME280;67271;59.120;37.970;2023-03-01T07:50:22;99125.28;;;-1.44;60.33
77867;BME280;67271;59.120;37.970;2023-03-01T07:52:49;99114.22;;;-1.40;59.87
77867;BME280;67271;59.120;37.970;2023-03-01T07:55:16;99124.81;;;-1.67;60.26
77867;BME280;67271;59.120;37.970;2023-03-01T07:57:42;99118.06;;;-1.62;60.08
77867;BME280;67271;59.120;37.970;2023-03-01T08:00:10;99124.97;;;-1.41;59.49
77867;BME280;67271;59.120;37.970;2023-03-01T08:02:39;99127.69;;;-1.51;59.18
77867;BME280;67271;59.120;37.970;2023-03-01T08:05:08;99119.41;;;-1.85;59.22
77867;BME280;67271;59.120;37.970;2023-03-01T08:07:34;99127.53;;;-2.15;59.54
77867;BME280;67271;59.120;37.970;2023-03-01T08:10:00;99130.22;;;-2.35;59.61
77867;BME280;67271;59.120;37.970;2023-03-01T08:12:26;99129.38;;;-2.35;59.43
77867;BME280;67271;59.120;37.970;2023-03-01T08:14:53;99126.28;;;-2.40;58.57
77867;BME280;67271;59.120;37.970;2023-03-01T08:17:19;99124.22;;;-2.65;59.25
77867;BME280;67271;59.120;37.970;2023-03-01T08:19:45;99127.16;;;-2.49;58.61
77867;BME280;67271;59.120;37.970;2023-03-01T08:22:11;99121.53;;;-2.08;57.69
77867;BME280;67271;59.120;37.970;2023-03-01T08:24:37;99119.06;;;-1.72;56.57
77867;BME280;67271;59.120;37.970;2023-03-01T08:27:03;99121.78;;;-1.45;56.02
77867;BME280;67271;59.120;37.970;2023-03-01T08:29:32;99102.19;;;-1.34;55.71
77867;BME280;67271;59.120;37.970;2023-03-01T08:31:58;99128.03;;;-1.36;55.78
77867;BME280;67271;59.120;37.970;2023-03-01T08:34:24;99130.03;;;-1.48;56.04
77867;BME280;67271;59.120;37.970;2023-03-01T08:36:50;99119.63;;;-1.69;56.29
77867;BME280;67271;59.120;37.970;2023-03-01T08:39:18;99114.34;;;-1.69;56.49
77867;BME280;67271;59.120;37.970;2023-03-01T08:41:45;99118.16;;;-1.90;56.54
77867;BME280;67271;59.120;37.970;2023-03-01T08:44:13;99109.38;;;-1.91;56.58
77867;BME280;67271;59.120;37.970;2023-03-01T08:46:40;99115.03;;;-1.67;56.01
77867;BME280;67271;59.120;37.970;2023-03-01T08:49:09;99114.69;;;-1.44;55.56
77867;BME280;67271;59.120;37.970;2023-03-01T08:51:36;99129.97;;;-1.29;55.00
77867;BME280;67271;59.120;37.970;2023-03-01T08:54:06;99121.31;;;-1.31;55.25
77867;BME280;67271;59.120;37.970;2023-03-01T08:56:33;99140.75;;;-1.40;54.98
77867;BME280;67271;59.120;37.970;2023-03-01T08:58:59;99133.50;;;-1.84;55.79
77867;BME280;67271;59.120;37.970;2023-03-01T09:01:25;99131.03;;;-1.96;56.41
77867;BME280;67271;59.120;37.970;2023-03-01T09:03:51;99137.97;;;-1.85;56.50
77867;BME280;67271;59.120;37.970;2023-03-01T09:06:17;99130.81;;;-1.75;55.82
77867;BME280;67271;59.120;37.970;2023-03-01T09:08:45;99128.47;;;-1.87;55.81
77867;BME280;67271;59.120;37.970;2023-03-01T09:11:14;99123.78;;;-2.03;56.29
77867;BME280;67271;59.120;37.970;2023-03-01T09:13:41;99117.47;;;-1.92;56.23
77867;BME280;67271;59.120;37.970;2023-03-01T09:16:08;99109.50;;;-1.92;55.80
77867;BME280;67271;59.120;37.970;2023-03-01T09:18:35;99099.84;;;-1.74;55.39
77867;BME280;67271;59.120;37.970;2023-03-01T09:21:06;99108.19;;;-1.69;55.84
77867;BME280;67271;59.120;37.970;2023-03-01T09:23:34;99092.06;;;-1.85;55.59
77867;BME280;67271;59.120;37.970;2023-03-01T09:26:00;99088.19;;;-2.01;56.27
77867;BME280;67271;59.120;37.970;2023-03-01T09:28:26;99081.53;;;-2.14;56.65
77867;BME280;67271;59.120;37.970;2023-03-01T09:30:51;99072.63;;;-2.33;57.07
77867;BME280;67271;59.120;37.970;2023-03-01T09:33:17;99073.47;;;-2.51;57.55
77867;BME280;67271;59.120;37.970;2023-03-01T09:35:43;99072.66;;;-2.42;57.23
77867;BME280;67271;59.120;37.970;2023-03-01T09:38:13;99070.41;;;-2.27;56.79
77867;BME280;67271;59.120;37.970;2023-03-01T09:40:43;99060.34;;;-2.24;56.74
77867;BME280;67271;59.120;37.970;2023-03-01T09:45:53;99078.94;;;-1.87;56.04
77867;BME280;67271;59.120;37.970;2023-03-01T09:48:23;99075.34;;;-1.96;56.34
77867;BME280;67271;59.120;37.970;2023-03-01T09:50:52;99077.03;;;-2.04;56.53
77867;BME280;67271;59.120;37.970;2023-03-01T09:53:24;99072.59;;;-2.13;56.76
77867;BME280;67271;59.120;37.970;2023-03-01T09:55:58;99069.50;;;-2.09;56.35
77867;BME280;67271;59.120;37.970;2023-03-01T10:04:35;99074.47;;;-1.86;56.07
77867;BME280;67271;59.120;37.970;2023-03-01T10:09:42;99052.28;;;-1.85;55.73
77867;BME280;67271;59.120;37.970;2023-03-01T10:12:11;99059.66;;;-1.79;55.64
77867;BME280;67271;59.120;37.970;2023-03-01T10:15:05;99070.16;;;-1.50;54.87
77867;BME280;67271;59.120;37.970;2023-03-01T10:17:41;99069.59;;;-1.27;54.41
77867;BME280;67271;59.120;37.970;2023-03-01T10:20:26;99066.44;;;-1.30;54.06
77867;BME280;67271;59.120;37.970;2023-03-01T10:22:55;99063.78;;;-1.30;54.31
77867;BME280;67271;59.120;37.970;2023-03-01T10:25:47;99063.41;;;-1.18;53.98
77867;BME280;67271;59.120;37.970;2023-03-01T10:30:53;99059.84;;;-1.90;55.09
77867;BME280;67271;59.120;37.970;2023-03-01T10:33:29;99062.84;;;-1.39;54.45
77867;BME280;67271;59.120;37.970;2023-03-01T10:35:56;99054.81;;;-0.84;53.06
77867;BME280;67271;59.120;37.970;2023-03-01T10:38:22;99067.78;;;-0.63;52.69
77867;BME280;67271;59.120;37.970;2023-03-01T10:40:57;99059.41;;;-0.51;52.11
77867;BME280;67271;59.120;37.970;2023-03-01T10:43:25;99061.28;;;-0.69;52.61
77867;BME280;67271;59.120;37.970;2023-03-01T10:45:52;99051.22;;;-0.75;52.84
77867;BME280;67271;59.120;37.970;2023-03-01T10:48:26;99072.94;;;-0.80;52.65
77867;BME280;67271;59.120;37.970;2023-03-01T10:51:06;99061.25;;;-0.87;52.70
77867;BME280;67271;59.120;37.970;2023-03-01T10:53:38;99048.66;;;-0.85;53.32
77867;BME280;67271;59.120;37.970;2023-03-01T10:56:08;99053.84;;;-0.83;52.93
77867;BME280;67271;59.120;37.970;2023-03-01T10:58:36;99050.31;;;-0.66;52.70
77867;BME280;67271;59.120;37.970;2023-03-01T11:01:26;99040.47;;;-0.56;52.04
77867;BME280;67271;59.120;37.970;2023-03-01T11:06:34;99037.72;;;-0.64;52.81
77867;BME280;67271;59.120;37.970;2023-03-01T11:09:21;99043.41;;;-0.94;53.53
77867;BME280;67271;59.120;37.970;2023-03-01T11:11:52;99041.72;;;-1.31;54.61
77867;BME280;67271;59.120;37.970;2023-03-01T11:14:24;99050.47;;;-1.58;54.64
77867;BME280;67271;59.120;37.970;2023-03-01T11:17:12;99050.03;;;-1.80;54.79
77867;BME280;67271;59.120;37.970;2023-03-01T11:19:41;99037.78;;;-1.81;54.99
77867;BME280;67271;59.120;37.970;2023-03-01T11:24:42;99027.69;;;-1.78;54.52
77867;BME280;67271;59.120;37.970;2023-03-01T11:27:32;99035.66;;;-1.78;54.63
77867;BME280;67271;59.120;37.970;2023-03-01T11:36:05;99044.06;;;-1.82;54.72
77867;BME280;67271;59.120;37.970;2023-03-01T11:38:35;99035.31;;;-1.65;54.11
77867;BME280;67271;59.120;37.970;2023-03-01T11:41:14;99034.63;;;-1.67;54.08
77867;BME280;67271;59.120;37.970;2023-03-01T11:43:57;99026.56;;;-1.75;54.62
77867;BME280;67271;59.120;37.970;2023-03-01T12:48:47;98998.00;;;-1.81;57.10
77867;BME280;67271;59.120;37.970;2023-03-01T12:51:20;98997.41;;;-1.75;56.80
77867;BME280;67271;59.120;37.970;2023-03-01T12:53:50;98982.59;;;-1.68;56.78
77867;BME280;67271;59.120;37.970;2023-03-01T12:56:22;99002.69;;;-1.66;56.91
77867;BME280;67271;59.120;37.970;2023-03-01T12:59:15;98997.41;;;-1.75;57.08
77867;BME280;67271;59.120;37.970;2023-03-01T13:01:59;98980.28;;;-1.81;57.24
77867;BME280;67271;59.120;37.970;2023-03-01T13:07:18;98994.06;;;-1.77;57.54
77867;BME280;67271;59.120;37.970;2023-03-01T13:33:50;98976.84;;;-2.38;60.12
77867;BME280;67271;59.120;37.970;2023-03-01T13:55:32;98967.56;;;-2.51;60.60
77867;BME280;67271;59.120;37.970;2023-03-01T13:58:05;98975.50;;;-2.51;60.46
77867;BME280;67271;59.120;37.970;2023-03-01T14:00:40;98969.38;;;-2.52;60.30
77867;BME280;67271;59.120;37.970;2023-03-01T14:03:10;98952.63;;;-2.52;60.99
77867;BME280;67271;59.120;37.970;2023-03-01T14:05:38;98948.31;;;-2.53;60.60
77867;BME280;67271;59.120;37.970;2023-03-01T14:08:14;98955.03;;;-2.59;60.93
77867;BME280;67271;59.120;37.970;2023-03-01T14:16:12;98964.78;;;-2.59;60.98
77867;BME280;67271;59.120;37.970;2023-03-01T14:19:15;98962.56;;;-2.64;61.57
77867;BME280;67271;59.120;37.970;2023-03-01T14:21:38;98954.91;;;-2.67;61.45
77867;BME280;67271;59.120;37.970;2023-03-01T14:24:04;98964.66;;;-2.67;61.24
77867;BME280;67271;59.120;37.970;2023-03-01T14:26:37;98959.34;;;-2.67;61.27
77867;BME280;67271;59.120;37.970;2023-03-01T14:29:03;98962.97;;;-2.68;61.46
77867;BME280;67271;59.120;37.970;2023-03-01T14:31:36;98970.91;;;-2.68;61.59
77867;BME280;67271;59.120;37.970;2023-03-01T14:34:03;98962.97;;;-2.68;61.32
77867;BME280;67271;59.120;37.970;2023-03-01T14:36:31;98959.34;;;-2.67;61.25
77867;BME280;67271;59.120;37.970;2023-03-01T14:38:57;98978.88;;;-2.68;61.86
77867;BME280;67271;59.120;37.970;2023-03-01T14:41:35;98962.97;;;-2.68;61.67
77867;BME280;67271;59.120;37.970;2023-03-01T14:44:04;98969.25;;;-2.69;61.74
77867;BME280;67271;59.120;37.970;2023-03-01T14:46:34;98966.47;;;-2.68;61.62
77867;BME280;67271;59.120;37.970;2023-03-01T14:51:57;98956.97;;;-2.70;62.04
77867;BME280;67271;59.120;37.970;2023-03-01T14:54:32;98969.56;;;-2.72;62.50
77867;BME280;67271;59.120;37.970;2023-03-01T14:57:03;98968.72;;;-2.73;62.95
77867;BME280;67271;59.120;37.970;2023-03-01T14:59:29;98960.63;;;-2.71;62.73
77867;BME280;67271;59.120;37.970;2023-03-01T15:01:57;98963.13;;;-2.70;62.63
77867;BME280;67271;59.120;37.970;2023-03-01T15:04:27;98975.25;;;-2.67;62.76
77867;BME280;67271;59.120;37.970;2023-03-01T15:06:55;98970.38;;;-2.72;63.71
77867;BME280;67271;59.120;37.970;2023-03-01T15:09:21;98980.41;;;-2.76;64.21
77867;BME280;67271;59.120;37.970;2023-03-01T15:11:48;98975.13;;;-2.76;64.22
77867;BME280;67271;59.120;37.970;2023-03-01T15:14:39;98966.47;;;-2.78;63.78
77867;BME280;67271;59.120;37.970;2023-03-01T15:19:46;98984.31;;;-2.80;63.72
77867;BME280;67271;59.120;37.970;2023-03-01T15:22:16;98978.06;;;-2.79;63.97
77867;BME280;67271;59.120;37.970;2023-03-01T15:24:49;98979.72;;;-2.78;63.76
77867;BME280;67271;59.120;37.970;2023-03-01T15:27:22;98972.59;;;-2.77;63.95
77867;BME280;67271;59.120;37.970;2023-03-01T15:29:59;98982.25;;;-2.86;64.50
77867;BME280;67271;59.120;37.970;2023-03-01T15:32:33;98971.66;;;-2.95;65.23
77867;BME280;67271;59.120;37.970;2023-03-01T15:35:00;98979.31;;;-3.12;66.14
77867;BME280;67271;59.120;37.970;2023-03-01T15:37:47;98997.56;;;-3.18;66.29